Дата Время Давление Темп. Влажн. Скор.ветра Напр.ветра Макс.ветер Осадки/час Осадки
06.03.21 01:00 744 -6.1 88.3 1.2 46 3.1 0 0
06.03.21 00:00 743.8 -5 88.2 1.2 19 2.3 0 2.8
05.03.21 23:00 743.6 -4.6 87.2 0.7 292 2.7 0 2.8
05.03.21 22:00 743 -4.3 87.8 1.4 287 2.9 0 2.8
05.03.21 21:00 742.8 -4.9 87.6 0.7 28 2.7 0 2.8
05.03.21 20:00 742.7 -4 83.1 1.2 2 2.5 0 2.8
05.03.21 19:00 742.2 -3.6 75.2 1.8 41 3.1 0 2.8
05.03.21 18:00 741.6 -2.4 67.5 1 358 5 0 2.8
05.03.21 17:00 741.4 1.7 55.3 1.1 301 3.8 0 2.8
05.03.21 16:00 741 -0.9 64.9 0.9 19 4 0 2.8
05.03.21 15:00 741 -1 61.2 2 12 5.1 0 2.8
05.03.21 14:00 740.6 0.3 62.4 1.8 283 5.1 0 2.8
05.03.21 13:00 740.5 3.6 58.8 0.7 237 5.8 0.4 2.8
05.03.21 12:00 740.3 1.6 75.2 1.3 350 3.8 0.8 2.4
05.03.21 11:00 739.7 -1.1 88.4 1.2 6 2.9 0.8 1.6
05.03.21 10:00 738.9 -2.2 93.4 0.7 339 2.5 0.2 0.8
05.03.21 09:00 738.6 -4.8 93.7 0.9 273 1.9 0 0.6
05.03.21 08:00 738 -5.6 93.9 0.9 276 2.2 0 0.6
05.03.21 07:00 737.9 -6.1 93.5 0.6 5 1.6 0 0.6
05.03.21 06:00 737.4 -5.6 93.8 0.6 17 1.7 0 0.6
05.03.21 05:00 737 -5.2 94.1 0.6 0 1.8 0.2 0.6
05.03.21 04:00 736.7 -4.4 94.4 1.1 4 2.2 0 0.4
05.03.21 03:00 736.3 -4.5 94.6 0.7 7 2.1 0 0.4
05.03.21 02:00 735.8 -3.6 95.1 0.9 349 2 0.2 0.4